createdAt,value
2019-03-30T00:04:37.987Z,3.1
2019-03-30T00:09:40.564Z,3.1
2019-03-30T00:14:43.012Z,3
2019-03-30T00:19:45.716Z,2.9
2019-03-30T00:24:47.845Z,2.8
2019-03-30T00:29:50.405Z,2.7
2019-03-30T00:34:52.777Z,2.6
2019-03-30T00:39:55.303Z,2.6
2019-03-30T00:44:57.829Z,2.5
2019-03-30T00:50:00.886Z,2.5
2019-03-30T00:55:02.651Z,2.5
2019-03-30T01:00:05.161Z,2.4
2019-03-30T01:05:07.570Z,2.3
2019-03-30T01:10:10.064Z,2.3
2019-03-30T01:15:12.605Z,2.2
2019-03-30T01:20:15.308Z,2.2
2019-03-30T01:25:17.418Z,2.2
2019-03-30T01:30:23.159Z,2.2
2019-03-30T01:35:22.449Z,2.1
2019-03-30T01:40:24.857Z,2.1
2019-03-30T01:45:27.346Z,2
2019-03-30T01:50:30.018Z,2
2019-03-30T01:55:32.210Z,1.9
2019-03-30T02:00:34.669Z,1.8
2019-03-30T02:05:37.097Z,1.8
2019-03-30T02:10:39.587Z,1.7
2019-03-30T02:15:42.281Z,1.7
2019-03-30T02:20:44.646Z,1.6
2019-03-30T02:25:46.968Z,1.6
2019-03-30T02:30:49.447Z,1.6
2019-03-30T02:40:54.323Z,1.6
2019-03-30T02:45:56.920Z,1.6
2019-03-30T02:50:59.643Z,1.5
2019-03-30T02:56:01.730Z,1.5
2019-03-30T03:01:04.211Z,1.4
2019-03-30T03:06:06.637Z,1.3
2019-03-30T03:11:09.157Z,1.3
2019-03-30T03:16:11.681Z,1.2
2019-03-30T03:21:14.042Z,1.2
2019-03-30T03:26:16.485Z,1.2
2019-03-30T03:31:18.971Z,1.2
2019-03-30T03:36:21.420Z,1.2
2019-03-30T03:41:23.862Z,1.2
2019-03-30T03:46:26.365Z,1.1
2019-03-30T03:51:29.086Z,1
2019-03-30T03:56:31.255Z,1
2019-03-30T04:01:33.713Z,0.9
2019-03-30T04:06:36.188Z,0.9
2019-03-30T04:11:38.610Z,0.8
2019-03-30T04:16:41.191Z,0.7
2019-03-30T04:21:44.863Z,0.6
2019-03-30T04:26:46.001Z,0.6
2019-03-30T04:31:48.481Z,0.6
2019-03-30T04:36:50.926Z,0.6
2019-03-30T04:41:53.382Z,0.6
2019-03-30T04:46:55.905Z,0.5
2019-03-30T04:51:58.807Z,0.5
2019-03-30T04:57:00.765Z,0.6
2019-03-30T05:02:03.210Z,0.5
2019-03-30T05:07:05.805Z,0.6
2019-03-30T05:12:08.130Z,0.6
2019-03-30T05:17:10.689Z,0.7
2019-03-30T05:22:16.409Z,0.8
2019-03-30T05:27:15.549Z,0.9
2019-03-30T05:32:17.978Z,1
2019-03-30T05:37:20.526Z,1.1
2019-03-30T05:42:22.864Z,1.3
2019-03-30T05:47:25.509Z,1.5
2019-03-30T05:52:28.073Z,1.6
2019-03-30T05:57:30.310Z,1.7
2019-03-30T06:02:32.741Z,1.8
2019-03-30T06:07:35.211Z,2
2019-03-30T06:12:37.655Z,2.2
2019-03-30T06:17:40.219Z,2.3
2019-03-30T06:22:42.865Z,2.6
2019-03-30T06:27:45.021Z,2.8
2019-03-30T06:32:47.503Z,3.2
2019-03-30T06:37:49.968Z,3.6
2019-03-30T06:42:52.437Z,5.3
2019-03-30T06:47:54.882Z,8.8
2019-03-30T06:53:02.344Z,12.5
2019-03-30T07:03:02.276Z,18.6
2019-03-30T07:08:04.719Z,20.7
2019-03-30T07:13:07.167Z,22.4
2019-03-30T07:18:09.714Z,24.2
2019-03-30T07:23:12.788Z,25.6
2019-03-30T07:28:14.541Z,26.7
2019-03-30T07:33:17.018Z,27.3
2019-03-30T07:38:19.462Z,28.5
2019-03-30T07:43:21.948Z,29.6
2019-03-30T07:48:24.476Z,30.7
2019-03-30T07:53:27.182Z,31.9
2019-03-30T07:58:29.292Z,32.8
2019-03-30T08:03:31.829Z,33.7
2019-03-30T08:08:34.207Z,34.8
2019-03-30T08:13:36.670Z,34.9
2019-03-30T08:18:39.169Z,32.5
2019-03-30T08:23:41.629Z,30.2
2019-03-30T08:28:44.078Z,28.8
2019-03-30T08:33:46.522Z,29.1
2019-03-30T08:38:48.991Z,30.1
2019-03-30T08:43:51.470Z,30.7
2019-03-30T08:48:53.994Z,32
2019-03-30T08:53:56.425Z,33.9
2019-03-30T08:58:58.862Z,35.6
2019-03-30T09:04:01.280Z,36.9
2019-03-30T09:09:03.767Z,38
2019-03-30T09:14:06.356Z,38.8
2019-03-30T09:19:08.737Z,39
2019-03-30T09:24:11.231Z,39.1
2019-03-30T09:29:13.976Z,39.8
2019-03-30T09:34:16.042Z,40.2
2019-03-30T09:39:18.529Z,40.9
2019-03-30T09:44:20.947Z,41
2019-03-30T09:49:23.600Z,41.2
2019-03-30T09:54:25.881Z,41.1
2019-03-30T09:59:28.393Z,42
2019-03-30T10:04:30.815Z,42.8
2019-03-30T10:09:33.257Z,43.2
2019-03-30T10:14:35.810Z,43.4
2019-03-30T10:19:38.293Z,42.9
2019-03-30T10:24:40.654Z,41.9
2019-03-30T10:29:43.441Z,41.7
2019-03-30T10:34:45.573Z,42
2019-03-30T10:39:48.032Z,42.7
2019-03-30T10:44:50.571Z,43.1
2019-03-30T10:54:55.440Z,43.9
2019-03-30T10:59:58.231Z,44.4
2019-03-30T11:05:00.458Z,43
2019-03-30T11:10:02.881Z,42.7
2019-03-30T11:15:05.314Z,43.1
2019-03-30T11:20:07.766Z,43.5
2019-03-30T11:25:10.349Z,43.7
2019-03-30T11:30:17.683Z,43.4
2019-03-30T11:35:15.120Z,42.7
2019-03-30T11:40:17.591Z,42.4
2019-03-30T11:45:20.133Z,41.8
2019-03-30T11:50:22.512Z,41.5
2019-03-30T11:55:25.067Z,41.7
2019-03-30T12:00:27.433Z,41.7
2019-03-30T12:05:29.886Z,41.5
2019-03-30T12:10:32.355Z,41.4
2019-03-30T12:15:34.801Z,40.8
2019-03-30T12:20:37.270Z,40.3
2019-03-30T12:25:39.845Z,38.8
2019-03-30T12:30:42.549Z,38.4
2019-03-30T12:35:44.706Z,39.2
2019-03-30T12:40:47.149Z,39.6
2019-03-30T12:45:49.579Z,39.7
2019-03-30T12:50:52.145Z,39.6
2019-03-30T12:55:54.597Z,38.9
2019-03-30T13:00:56.996Z,38
2019-03-30T13:05:59.518Z,37.4
2019-03-30T13:11:01.931Z,37.1
2019-03-30T13:16:04.358Z,37.1
2019-03-30T13:21:06.892Z,36.9
2019-03-30T13:26:09.357Z,36.9
2019-03-30T13:31:11.744Z,37.1
2019-03-30T13:36:14.222Z,37.3
2019-03-30T13:41:16.649Z,36.7
2019-03-30T13:46:19.131Z,34.8
2019-03-30T13:51:21.651Z,32.1
2019-03-30T13:56:24.180Z,29.7
2019-03-30T14:01:26.795Z,27.5
2019-03-30T14:06:28.933Z,25.8
2019-03-30T14:11:31.395Z,24.8
2019-03-30T14:16:33.876Z,23.9
2019-03-30T14:21:36.333Z,23.3
2019-03-30T14:26:39.061Z,23
2019-03-30T14:31:41.516Z,22.6
2019-03-30T14:36:44.188Z,22.3
2019-03-30T14:41:46.168Z,22.1
2019-03-30T14:46:48.754Z,21.9
2019-03-30T14:51:51.094Z,21.9
2019-03-30T14:56:53.630Z,21.9
2019-03-30T15:01:56.319Z,21.9
2019-03-30T15:06:58.799Z,21.8
2019-03-30T15:12:01.000Z,21.7
2019-03-30T15:17:03.450Z,21.5
2019-03-30T15:22:05.828Z,21.2
2019-03-30T15:27:08.370Z,21
2019-03-30T15:32:11.026Z,20.7
2019-03-30T15:37:13.192Z,20.5
2019-03-30T15:42:15.657Z,20.1
2019-03-30T15:47:18.150Z,19.8
2019-03-30T15:52:20.672Z,19.7
2019-03-30T15:57:25.318Z,19.5
2019-03-30T16:02:25.887Z,19.4
2019-03-30T16:07:27.943Z,19.3
2019-03-30T16:12:30.409Z,19.2
2019-03-30T16:17:32.863Z,19.2
2019-03-30T16:22:35.473Z,19.1
2019-03-30T16:27:39.300Z,18.9
2019-03-30T16:32:40.396Z,18.8
2019-03-30T16:37:42.747Z,18.7
2019-03-30T16:42:45.296Z,18.6
2019-03-30T16:47:47.696Z,18.5
2019-03-30T16:52:50.124Z,18.3
2019-03-30T16:57:52.610Z,18.2
2019-03-30T17:02:55.638Z,18
2019-03-30T17:07:57.581Z,17.7
2019-03-30T17:12:59.936Z,17.4
2019-03-30T17:18:02.454Z,17.1
2019-03-30T17:23:04.854Z,16.7
2019-03-30T17:28:07.395Z,16.2
2019-03-30T17:33:10.031Z,15.6
2019-03-30T17:38:12.189Z,15
2019-03-30T17:43:14.667Z,14.5
2019-03-30T17:48:17.112Z,14.1
2019-03-30T17:53:19.582Z,13.6
2019-03-30T17:58:22.118Z,13.2
2019-03-30T18:03:24.481Z,12.8
2019-03-30T18:08:26.954Z,12.5
2019-03-30T18:13:29.399Z,12.3
2019-03-30T18:23:34.314Z,11.8
2019-03-30T18:28:36.871Z,11.5
2019-03-30T18:33:39.249Z,11.2
2019-03-30T18:38:41.677Z,11
2019-03-30T18:43:44.143Z,10.8
2019-03-30T18:48:46.689Z,10.6
2019-03-30T18:53:49.096Z,10.5
2019-03-30T18:58:51.737Z,10.1
2019-03-30T19:03:54.322Z,9.9
2019-03-30T19:08:56.503Z,9.7
2019-03-30T19:13:58.878Z,9.4
2019-03-30T19:19:01.348Z,9.3
2019-03-30T19:24:03.851Z,9.1
2019-03-30T19:29:06.413Z,9
2019-03-30T19:34:09.032Z,8.9
2019-03-30T19:39:11.269Z,8.7
2019-03-30T19:44:13.631Z,8.6
2019-03-30T19:49:16.171Z,8.5
2019-03-30T19:54:18.555Z,8.4
2019-03-30T19:59:21.047Z,8.3
2019-03-30T20:04:23.810Z,8.2
2019-03-30T20:09:25.969Z,8.2
2019-03-30T20:14:28.379Z,8.1
2019-03-30T20:19:30.837Z,8
2019-03-30T20:24:33.318Z,8
2019-03-30T20:29:35.855Z,7.9
2019-03-30T20:34:38.575Z,7.9
2019-03-30T20:39:40.723Z,7.9
2019-03-30T20:44:43.168Z,7.8
2019-03-30T20:49:45.715Z,7.8
2019-03-30T20:54:48.059Z,7.8
2019-03-30T20:59:50.605Z,7.7
2019-03-30T21:04:53.406Z,7.6
2019-03-30T21:14:57.929Z,7.4
2019-03-30T21:20:00.427Z,7.3
2019-03-30T21:25:03.018Z,7.1
2019-03-30T21:30:05.412Z,7
2019-03-30T21:35:08.126Z,6.9
2019-03-30T21:40:10.216Z,6.8
2019-03-30T21:45:12.650Z,6.7
2019-03-30T21:50:15.137Z,6.6
2019-03-30T21:55:17.568Z,6.5
2019-03-30T22:00:20.118Z,6.4
2019-03-30T22:05:22.747Z,6.3
2019-03-30T22:10:24.977Z,6.2
2019-03-30T22:15:27.534Z,6.1
2019-03-30T22:20:29.847Z,6
2019-03-30T22:25:32.391Z,5.9
2019-03-30T22:30:34.841Z,5.7
2019-03-30T22:35:37.621Z,5.6
2019-03-30T22:40:41.522Z,5.5
2019-03-30T22:45:42.161Z,5.5
2019-03-30T22:50:44.595Z,5.5
2019-03-30T22:55:47.035Z,5.4
2019-03-30T23:00:49.623Z,5.3
2019-03-30T23:05:52.347Z,5.2
2019-03-30T23:10:54.476Z,5.2
2019-03-30T23:15:56.989Z,5.2
2019-03-30T23:20:59.428Z,5.1
2019-03-30T23:26:01.789Z,5.1
2019-03-30T23:31:04.367Z,5.1
2019-03-30T23:36:07.154Z,5
2019-03-30T23:41:09.230Z,5
2019-03-30T23:46:11.656Z,4.9
2019-03-30T23:51:14.102Z,4.8
2019-03-30T23:56:16.591Z,4.7
